Terminal Aerodrome Forecast
Issued by NWS

Home | Current Version | Previous Version | Text Only | Print | Product List | Glossary On
Versions: 1 2 3 4 5 6 7 8 9 10 11 12
532
FTUS41 KCAR 272320
TAFBHB
TAF
KBHB 272320Z 2800/2824 18008KT P6SM VCTS BKN080CB
      TEMPO 2800/2801 -TSRA BKN050CB
     FM280100 17005KT 6SM -SHRA OVC040
     FM280800 18005KT 1SM BR BKN002
     FM281200 24004KT 5SM BR SCT003
     FM281500 25005KT P6SM SCT070=

USA.gov is the U.S. government's official web portal to all federal, state and local government web resources and services.